Time;durP1;ratioP1;P1;durP2;ratioP2;P2;SDS_P1;SDS_P2;PMS_P1;PMS_P2;Temp;Humidity;BMP_temperature;BMP_pressure;BME280_temperature;BME280_humidity;BME280_pressure;Samples;Min_cycle;Max_cycle;Signal;HPM_P1;HPM_P2
2024/03/15 00:01:40;;;;;;;4.70;3.60;;;;;;;10.37;72.41;99759.53;5090216;28;20039;-26
2024/03/15 00:04:05;;;;;;;5.15;3.88;;;;;;;10.24;72.92;99754.16;5090227;28;20070;-26
2024/03/15 00:06:30;;;;;;;5.03;3.45;;;;;;;10.12;73.09;99756.59;5090177;28;20051;-27
2024/03/15 00:08:58;;;;;;;4.55;3.38;;;;;;;10.09;73.79;99758.81;5090064;28;20052;-26
2024/03/15 00:11:24;;;;;;;4.80;3.63;;;;;;;10.20;73.32;99752.94;5086331;28;20028;-26
2024/03/15 00:13:51;;;;;;;5.55;4.00;;;;;;;10.23;72.78;99749.88;5070023;28;20105;-25
2024/03/15 00:16:16;;;;;;;5.35;3.72;;;;;;;10.22;72.70;99734.94;5069648;28;20119;-26
2024/03/15 00:18:41;;;;;;;5.13;3.63;;;;;;;10.12;73.75;99745.94;5070089;28;20108;-26
2024/03/15 00:21:07;;;;;;;5.55;4.18;;;;;;;10.39;72.93;99737.25;5069967;28;20020;-26
2024/03/15 00:23:32;;;;;;;6.85;4.50;;;;;;;10.63;71.13;99741.19;5069635;28;20114;-26
2024/03/15 00:26:01;;;;;;;7.10;4.65;;;;;;;10.25;73.27;99733.72;5069721;28;20035;-27
2024/03/15 00:28:26;;;;;;;9.98;4.90;;;;;;;10.24;72.72;99737.38;5069762;28;20017;-25
2024/03/15 00:30:51;;;;;;;6.22;4.65;;;;;;;9.98;74.47;99723.03;5069673;28;20043;-26
2024/03/15 00:33:17;;;;;;;8.10;6.07;;;;;;;10.25;73.50;99734.53;5069755;28;20044;-26
2024/03/15 00:35:43;;;;;;;9.30;6.40;;;;;;;10.27;73.47;99734.34;5072519;28;20498;-26
2024/03/15 00:38:08;;;;;;;9.63;6.53;;;;;;;10.42;73.03;99737.66;5072894;28;20443;-26
2024/03/15 00:40:33;;;;;;;8.80;6.45;;;;;;;10.30;73.14;99737.44;5073234;28;20032;-26
2024/03/15 00:42:59;;;;;;;9.52;6.70;;;;;;;10.37;72.20;99732.13;5073087;28;20036;-26
2024/03/15 00:45:25;;;;;;;11.32;7.22;;;;;;;10.32;72.40;99726.63;5072921;28;20099;-26
2024/03/15 00:47:51;;;;;;;11.70;7.35;;;;;;;10.28;72.54;99728.81;5073209;28;20024;-26
2024/03/15 00:50:17;;;;;;;9.75;6.88;;;;;;;10.42;72.44;99731.53;5072951;28;20032;-26
2024/03/15 00:52:43;;;;;;;9.65;7.15;;;;;;;10.34;73.24;99725.38;5090203;28;20024;-26
2024/03/15 00:55:09;;;;;;;9.60;6.50;;;;;;;10.36;72.53;99731.31;5093261;28;20483;-26
2024/03/15 00:57:34;;;;;;;11.13;6.38;;;;;;;10.22;73.92;99724.28;5093075;28;20107;-25
2024/03/15 01:00:01;;;;;;;8.73;6.47;;;;;;;10.28;72.77;99730.63;5093007;28;20032;-26
2024/03/15 01:02:27;;;;;;;9.18;6.40;;;;;;;10.29;72.99;99730.44;5092835;28;20060;-26
2024/03/15 01:04:52;;;;;;;9.43;6.78;;;;;;;10.29;73.27;99729.63;5092624;28;20028;-26
2024/03/15 01:07:20;;;;;;;11.88;6.68;;;;;;;10.27;74.51;99732.50;5092997;28;20533;-26
2024/03/15 01:09:45;;;;;;;9.23;6.60;;;;;;;10.26;74.04;99738.84;5093063;28;20024;-26
2024/03/15 01:12:10;;;;;;;7.93;5.97;;;;;;;9.96;75.21;99725.88;5092694;28;20464;-26
2024/03/15 01:14:36;;;;;;;9.60;6.10;;;;;;;9.86;75.03;99724.59;5092895;28;20028;-26
2024/03/15 01:17:01;;;;;;;7.18;5.25;;;;;;;9.68;75.99;99717.19;5092463;28;20028;-26
2024/03/15 01:19:26;;;;;;;7.82;5.45;;;;;;;9.73;75.83;99720.06;5091935;28;20020;-26
2024/03/15 01:21:52;;;;;;;8.05;5.90;;;;;;;9.70;76.52;99726.59;5092242;28;20330;-26
2024/03/15 01:24:18;;;;;;;7.85;5.80;;;;;;;9.66;76.23;99727.19;5091985;28;20032;-26
2024/03/15 01:26:43;;;;;;;8.52;6.00;;;;;;;9.87;75.73;99716.44;5092984;28;20416;-26
2024/03/15 01:29:09;;;;;;;8.23;6.32;;;;;;;10.06;75.11;99732.66;5091641;28;20031;-27
2024/03/15 01:31:35;;;;;;;7.05;5.15;;;;;;;9.91;75.21;99722.16;5092592;28;20556;-26
2024/03/15 01:34:01;;;;;;;8.18;5.43;;;;;;;9.84;76.26;99721.31;5092796;28;20494;-26
2024/03/15 01:36:26;;;;;;;9.35;6.55;;;;;;;9.92;75.49;99727.28;5092771;28;20036;-26
2024/03/15 01:38:51;;;;;;;8.85;6.50;;;;;;;10.06;75.67;99730.81;5092876;28;20089;-26
2024/03/15 01:41:17;;;;;;;9.57;5.82;;;;;;;9.72;76.41;99724.53;5092658;28;20142;-26
2024/03/15 01:43:49;;;;;;;8.55;5.82;;;;;;;9.70;76.86;99731.91;5092959;28;20024;-26
2024/03/15 01:46:15;;;;;;;7.78;5.85;;;;;;;9.83;76.11;99733.00;5092697;28;20020;-26
2024/03/15 01:48:40;;;;;;;9.70;6.00;;;;;;;9.86;76.36;99733.41;5092772;28;20384;-26
2024/03/15 01:51:06;;;;;;;8.68;6.15;;;;;;;10.09;75.16;99724.25;5092693;28;20129;-26
2024/03/15 01:53:32;;;;;;;9.25;6.38;;;;;;;9.94;76.47;99729.75;5092544;28;20054;-26
2024/03/15 01:55:57;;;;;;;9.07;6.40;;;;;;;9.82;76.58;99728.69;5092646;28;20028;-26
2024/03/15 01:58:24;;;;;;;9.02;6.35;;;;;;;9.86;76.59;99727.25;5092622;28;20027;-26
2024/03/15 02:00:50;;;;;;;8.82;6.30;;;;;;;9.86;76.59;99720.13;5092698;28;20043;-26
2024/03/15 02:03:16;;;;;;;8.50;6.03;;;;;;;9.87;77.68;99728.91;5092354;28;20024;-26
2024/03/15 02:05:43;;;;;;;10.07;6.78;;;;;;;9.86;77.97;99737.88;5092110;28;20028;-26
2024/03/15 02:08:08;;;;;;;11.45;6.70;;;;;;;9.88;77.69;99731.38;5092307;28;20016;-26
2024/03/15 02:10:33;;;;;;;9.50;6.35;;;;;;;9.96;77.91;99723.22;5090916;28;20460;-26
2024/03/15 02:13:01;;;;;;;9.60;6.57;;;;;;;10.10;76.66;99720.59;5091961;28;20024;-26
2024/03/15 02:15:27;;;;;;;8.98;6.60;;;;;;;9.97;77.62;99730.16;5092151;28;20031;-26
2024/03/15 02:17:53;;;;;;;9.73;6.50;;;;;;;9.81;78.29;99732.38;5092005;28;20023;-26
2024/03/15 02:20:21;;;;;;;9.35;6.43;;;;;;;9.77;78.63;99726.63;5092212;28;20032;-26
2024/03/15 02:22:47;;;;;;;10.48;6.55;;;;;;;9.94;78.34;99722.59;5090698;28;20035;-26
2024/03/15 02:25:13;;;;;;;11.35;6.70;;;;;;;9.86;78.64;99728.09;5092287;28;20031;-25
2024/03/15 02:27:38;;;;;;;11.20;7.35;;;;;;;9.83;78.23;99730.31;5091995;28;20395;-26
2024/03/15 02:30:06;;;;;;;10.68;7.05;;;;;;;9.60;79.37;99731.47;5091705;28;20164;-26
2024/03/15 02:32:32;;;;;;;10.23;6.72;;;;;;;9.55;79.95;99732.03;5091790;28;20052;-26
2024/03/15 02:34:58;;;;;;;9.55;6.80;;;;;;;9.43;81.78;99738.13;5092319;28;20024;-26
2024/03/15 02:37:23;;;;;;;9.68;6.75;;;;;;;9.69;80.77;99735.59;5091236;28;20138;-26
2024/03/15 02:39:51;;;;;;;9.98;6.90;;;;;;;9.80;79.51;99736.84;5091366;28;20020;-26
2024/03/15 02:42:16;;;;;;;10.20;6.75;;;;;;;9.75;79.90;99733.97;5091607;28;20043;-26
2024/03/15 02:44:42;;;;;;;10.95;7.03;;;;;;;9.78;79.87;99737.03;5091209;28;20039;-26
2024/03/15 02:47:07;;;;;;;11.00;6.85;;;;;;;9.51;80.10;99729.97;5091355;28;20027;-26
2024/03/15 02:49:33;;;;;;;10.35;7.00;;;;;;;9.48;81.45;99725.88;5091808;28;20032;-27
2024/03/15 02:51:58;;;;;;;12.32;6.88;;;;;;;9.55;80.83;99734.69;5091577;28;20016;-26
2024/03/15 02:54:24;;;;;;;10.00;6.65;;;;;;;9.38;81.91;99733.38;5091590;28;20088;-25
2024/03/15 02:56:50;;;;;;;9.40;6.60;;;;;;;9.35;82.54;99726.63;5090916;28;20444;-25
2024/03/15 02:59:15;;;;;;;9.88;6.78;;;;;;;9.42;82.19;99725.84;5091347;28;20464;-24
2024/03/15 03:01:40;;;;;;;9.88;6.97;;;;;;;9.41;82.31;99740.16;5090789;28;20024;-25
2024/03/15 03:04:06;;;;;;;13.10;7.57;;;;;;;9.49;82.07;99732.00;5090861;28;20024;-24
2024/03/15 03:06:32;;;;;;;12.73;7.50;;;;;;;9.67;81.69;99742.94;5090897;28;20030;-25
2024/03/15 03:08:59;;;;;;;10.70;7.22;;;;;;;9.54;81.30;99726.94;5091046;28;20024;-25
2024/03/15 03:11:25;;;;;;;12.40;7.20;;;;;;;9.38;81.43;99731.53;5090860;28;20471;-25
2024/03/15 03:13:50;;;;;;;9.63;6.93;;;;;;;9.22;82.60;99734.50;5090857;28;20016;-26
2024/03/15 03:16:22;;;;;;;11.43;7.60;;;;;;;9.43;82.07;99736.28;5091078;28;20096;-25
2024/03/15 03:18:48;;;;;;;12.32;6.97;;;;;;;9.31;82.25;99735.16;5091410;28;20040;-26
2024/03/15 03:21:13;;;;;;;11.18;7.38;;;;;;;9.61;81.28;99729.59;5090908;28;20085;-26
2024/03/15 03:23:38;;;;;;;12.10;7.70;;;;;;;9.17;82.82;99726.31;5091200;28;20035;-25
2024/03/15 03:26:05;;;;;;;13.68;7.15;;;;;;;9.31;82.83;99730.69;5090356;28;20016;-26
2024/03/15 03:28:30;;;;;;;10.50;7.50;;;;;;;9.39;81.44;99719.09;5090930;28;20016;-25
2024/03/15 03:30:56;;;;;;;11.60;7.32;;;;;;;9.19;82.64;99733.06;5079703;28;20381;-25
2024/03/15 03:33:21;;;;;;;10.95;7.55;;;;;;;9.08;82.90;99732.78;5091299;28;20020;-25
2024/03/15 03:35:46;;;;;;;10.90;7.38;;;;;;;9.20;82.41;99705.50;5091031;28;20051;-25
2024/03/15 03:38:12;;;;;;;12.55;7.90;;;;;;;9.43;82.04;99738.13;5090730;28;20461;-26
2024/03/15 03:40:38;;;;;;;13.23;7.72;;;;;;;9.45;81.46;99731.56;5091077;28;20402;-25
2024/03/15 03:43:03;;;;;;;11.55;7.82;;;;;;;9.63;80.29;99733.69;5090844;28;20092;-26
2024/03/15 03:45:30;;;;;;;12.57;7.72;;;;;;;9.51;80.74;99729.97;5090649;28;20024;-25
2024/03/15 03:47:58;;;;;;;11.30;7.30;;;;;;;9.40;81.02;99723.38;5090993;28;20474;-26
2024/03/15 03:50:24;;;;;;;11.63;6.90;;;;;;;9.24;80.98;99729.81;5090774;28;20068;-25
2024/03/15 03:52:52;;;;;;;10.65;7.40;;;;;;;9.23;81.88;99724.69;5090998;28;20020;-24
2024/03/15 03:55:18;;;;;;;16.05;7.70;;;;;;;9.28;81.66;99728.41;5090703;28;20032;-25
2024/03/15 03:57:44;;;;;;;10.73;6.72;;;;;;;8.98;82.48;99725.97;5090532;28;20436;-25
2024/03/15 04:00:16;;;;;;;15.07;7.95;;;;;;;8.87;82.98;99713.25;5091195;28;20040;-26
2024/03/15 04:02:49;;;;;;;11.38;7.43;;;;;;;8.78;83.58;99725.03;5102479;28;20317;-25
2024/03/15 04:05:18;;;;;;;11.35;7.38;;;;;;;8.41;84.84;99724.25;5100108;28;20030;-25
2024/03/15 04:07:46;;;;;;;9.10;6.65;;;;;;;8.23;85.30;99720.22;5102180;28;20098;-25
2024/03/15 04:10:13;;;;;;;10.63;7.20;;;;;;;8.21;86.64;99727.53;5106559;28;20039;-25
2024/03/15 04:12:40;;;;;;;13.70;7.35;;;;;;;8.16;86.92;99740.50;5104163;28;20106;-26
2024/03/15 04:15:10;;;;;;;12.73;7.25;;;;;;;8.05;87.32;99730.41;5094057;28;20020;-25
2024/03/15 04:17:36;;;;;;;12.70;7.28;;;;;;;8.18;87.21;99738.50;5094466;28;20027;-26
2024/03/15 04:20:02;;;;;;;13.27;7.82;;;;;;;8.17;87.17;99742.16;5094435;28;20077;-25
2024/03/15 04:22:27;;;;;;;10.43;7.07;;;;;;;8.18;86.84;99738.50;5094244;28;20024;-25
2024/03/15 04:24:54;;;;;;;12.13;7.43;;;;;;;7.98;87.43;99735.63;5093835;28;20024;-25
2024/03/15 04:27:20;;;;;;;11.07;7.25;;;;;;;7.88;88.23;99731.63;5093809;28;20112;-25
2024/03/15 04:29:45;;;;;;;11.32;6.85;;;;;;;7.96;88.18;99744.78;5093674;28;20052;-26
2024/03/15 04:32:12;;;;;;;11.38;7.10;;;;;;;7.80;88.50;99743.16;5093896;28;20448;-26
2024/03/15 04:34:38;;;;;;;14.90;7.55;;;;;;;7.80;88.54;99748.47;5094016;28;20024;-26
2024/03/15 04:37:09;;;;;;;12.18;7.32;;;;;;;7.66;89.44;99739.53;5093852;28;20547;-25
2024/03/15 04:39:35;;;;;;;11.23;7.60;;;;;;;7.61;89.38;99750.66;5094205;28;20091;-25
2024/03/15 04:42:03;;;;;;;13.38;7.72;;;;;;;7.76;89.84;99761.25;5083760;28;20448;-26
2024/03/15 04:44:33;;;;;;;10.93;7.22;;;;;;;7.75;90.23;99759.63;5076675;28;20027;-26
2024/03/15 04:47:02;;;;;;;14.68;9.27;;;;;;;7.87;89.09;99753.84;5094320;28;20047;-26
2024/03/15 04:49:28;;;;;;;17.45;11.27;;;;;;;8.53;98.89;99767.03;5094303;28;20024;-25
2024/03/15 04:51:54;;;;;;;21.98;13.18;;;;;;;8.24;95.20;99768.75;5093794;28;20537;-25
2024/03/15 04:54:21;;;;;;;12.38;6.45;;;;;;;7.87;89.57;99765.28;5093393;28;20028;-25
2024/03/15 04:56:46;;;;;;;13.30;8.10;;;;;;;8.35;95.15;99770.09;5093943;28;20016;-25
2024/03/15 04:59:12;;;;;;;10.73;6.40;;;;;;;8.75;94.19;99767.84;5093437;28;20099;-25
2024/03/15 05:01:37;;;;;;;8.55;4.95;;;;;;;8.54;89.97;99766.03;5093888;28;20108;-26
2024/03/15 05:04:03;;;;;;;6.63;4.15;;;;;;;9.47;89.55;99761.41;5093909;28;20020;-26
2024/03/15 05:06:29;;;;;;;5.65;4.45;;;;;;;10.17;87.21;99770.13;5093828;28;20086;-27
2024/03/15 05:08:54;;;;;;;7.80;4.72;;;;;;;11.44;82.95;99775.53;5093625;28;20055;-26
2024/03/15 05:11:19;;;;;;;6.30;4.57;;;;;;;12.07;77.87;99774.94;5093741;28;20081;-27
2024/03/15 05:13:45;;;;;;;7.20;3.88;;;;;;;12.06;78.44;99783.16;5092952;28;20473;-26
2024/03/15 05:16:14;;;;;;;5.28;3.60;;;;;;;12.65;76.42;99768.66;5092814;28;20031;-26
2024/03/15 05:18:42;;;;;;;6.53;4.00;;;;;;;13.41;72.94;99776.69;5092877;28;20032;-26
2024/03/15 05:21:09;;;;;;;5.20;3.53;;;;;;;13.98;66.31;99774.59;5092174;28;20030;-27
2024/03/15 05:23:36;;;;;;;6.63;3.65;;;;;;;14.12;66.99;99779.78;5093394;28;20024;-27
2024/03/15 05:26:01;;;;;;;5.78;3.75;;;;;;;14.10;66.38;99781.84;5093802;28;20019;-27
2024/03/15 05:28:27;;;;;;;7.20;3.80;;;;;;;14.17;66.15;99785.28;5093582;28;20298;-27
2024/03/15 05:30:53;;;;;;;8.43;5.13;;;;;;;14.18;66.23;99787.69;5093305;28;20099;-26
2024/03/15 05:33:18;;;;;;;7.07;3.78;;;;;;;14.46;64.41;99787.13;5092402;28;20510;-27
2024/03/15 05:35:44;;;;;;;5.70;3.80;;;;;;;14.63;62.92;99786.50;5092588;28;20601;-27
2024/03/15 05:38:09;;;;;;;6.60;3.80;;;;;;;14.65;62.43;99789.78;5092530;28;20080;-27
2024/03/15 05:40:35;;;;;;;11.45;6.80;;;;;;;14.84;62.81;99796.69;5092971;28;20130;-27
2024/03/15 05:43:00;;;;;;;9.60;5.05;;;;;;;15.02;61.52;99793.13;5091205;28;20047;-26
2024/03/15 05:45:25;;;;;;;7.18;4.18;;;;;;;15.03;61.91;99792.06;5092252;28;20023;-27
2024/03/15 05:47:51;;;;;;;6.43;4.00;;;;;;;15.09;61.64;99794.88;5091427;28;20490;-27
2024/03/15 05:50:16;;;;;;;7.93;4.50;;;;;;;15.30;59.13;99796.16;5092722;28;20082;-27
2024/03/15 05:52:41;;;;;;;9.25;4.78;;;;;;;15.17;57.12;99806.06;5092629;28;20051;-27
2024/03/15 05:55:08;;;;;;;10.18;4.90;;;;;;;14.94;57.24;99801.47;5092069;28;20024;-28
2024/03/15 05:57:34;;;;;;;10.98;5.72;;;;;;;14.41;58.44;99805.75;5090858;28;20403;-28
2024/03/15 06:00:10;;;;;;;10.63;6.53;;;;;;;14.22;58.98;99809.47;5092210;28;20028;-27
2024/03/15 06:02:35;;;;;;;10.13;6.45;;;;;;;14.07;59.47;99809.91;5090806;28;20071;-28
2024/03/15 06:05:00;;;;;;;15.63;7.63;;;;;;;14.00;60.76;99801.94;5092619;28;20028;-28
2024/03/15 06:07:26;;;;;;;15.30;7.68;;;;;;;13.95;61.03;99817.03;5090143;28;20026;-27
2024/03/15 06:09:51;;;;;;;17.70;8.52;;;;;;;13.83;61.29;99819.63;5090376;28;20149;-27
2024/03/15 06:12:16;;;;;;;13.73;8.02;;;;;;;13.99;61.26;99808.34;5090445;28;20028;-27
2024/03/15 06:14:42;;;;;;;17.83;9.02;;;;;;;13.61;62.79;99821.91;5090285;28;20020;-26
2024/03/15 06:17:07;;;;;;;16.90;8.60;;;;;;;13.75;62.85;99823.41;5091320;28;20447;-27
2024/03/15 06:19:33;;;;;;;12.88;8.93;;;;;;;14.00;63.01;99828.69;5091494;28;20103;-27
2024/03/15 06:21:59;;;;;;;15.30;7.72;;;;;;;13.94;61.70;99829.59;5091933;28;20024;-28
2024/03/15 06:24:25;;;;;;;12.68;7.50;;;;;;;13.57;63.37;99836.75;5091838;28;20380;-29
2024/03/15 06:26:54;;;;;;;23.42;10.68;;;;;;;13.99;61.22;99837.78;5091896;28;20023;-28
2024/03/15 06:29:23;;;;;;;19.27;9.27;;;;;;;14.06;59.79;99835.81;5092049;28;20102;-28
2024/03/15 06:31:48;;;;;;;13.32;8.23;;;;;;;13.79;59.86;99829.94;5091437;28;20396;-27
2024/03/15 06:34:21;;;;;;;17.95;7.88;;;;;;;14.18;60.19;99843.09;5091798;28;20024;-28
2024/03/15 06:36:48;;;;;;;14.10;7.55;;;;;;;14.35;59.07;99845.97;5091329;28;20507;-27
2024/03/15 06:41:58;;;;;;;14.13;6.82;;;;;;;14.89;56.99;99838.88;5091625;28;20518;-27
2024/03/15 06:44:35;;;;;;;12.70;6.10;;;;;;;14.71;57.16;99846.97;5091167;28;20099;-30
2024/03/15 06:49:44;;;;;;;15.10;6.82;;;;;;;14.32;57.94;99846.41;5091729;28;20024;-28
2024/03/15 06:52:34;;;;;;;12.02;6.25;;;;;;;14.52;58.11;99835.47;5091208;28;20024;-28
2024/03/15 06:55:06;;;;;;;12.45;6.95;;;;;;;14.83;57.19;99842.44;5091222;28;20016;-27
2024/03/15 06:57:32;;;;;;;13.68;7.45;;;;;;;15.11;57.07;99839.13;5091549;28;20016;-28
2024/03/15 07:00:00;;;;;;;17.38;7.45;;;;;;;14.97;56.21;99833.16;5091076;28;20506;-27
2024/03/15 07:02:25;;;;;;;17.35;7.90;;;;;;;14.96;57.66;99831.53;5091240;28;20031;-27
2024/03/15 07:04:50;;;;;;;15.80;8.43;;;;;;;15.44;55.77;99833.22;5091622;28;20027;-27
2024/03/15 07:07:23;;;;;;;13.90;8.27;;;;;;;15.60;56.96;99834.38;5091139;28;20441;-27
2024/03/15 07:09:48;;;;;;;13.60;8.63;;;;;;;15.89;55.17;99841.75;5088751;28;20081;-27
2024/03/15 07:12:17;;;;;;;12.23;8.05;;;;;;;16.07;55.17;99832.69;5083488;28;20028;-41
2024/03/15 07:14:43;;;;;;;17.88;7.03;;;;;;;15.67;55.10;99839.63;5092302;28;20104;-41
2024/03/15 07:17:09;;;;;;;13.13;6.32;;;;;;;15.69;55.27;99840.22;5091626;28;20095;-42
2024/03/15 07:19:37;;;;;;;10.73;6.30;;;;;;;15.94;54.99;99844.53;5090943;28;20024;-40
2024/03/15 07:22:03;;;;;;;9.30;6.05;;;;;;;15.76;54.10;99832.91;5090909;28;20054;-41
2024/03/15 07:24:30;;;;;;;11.05;6.38;;;;;;;15.90;54.86;99840.69;5091310;28;20452;-41
2024/03/15 07:26:55;;;;;;;9.98;5.80;;;;;;;16.96;53.06;99843.00;5091398;28;20027;-41
2024/03/15 07:29:20;;;;;;;10.18;5.68;;;;;;;17.12;51.33;99834.13;5090806;28;20020;-41
2024/03/15 07:31:46;;;;;;;11.57;6.25;;;;;;;16.98;51.86;99840.88;5089860;28;20115;-41
2024/03/15 07:34:13;;;;;;;9.95;6.13;;;;;;;17.72;48.94;99835.28;5089129;28;20092;-42
2024/03/15 07:36:38;;;;;;;9.95;6.68;;;;;;;18.36;47.85;99840.13;5089099;28;20587;-39
2024/03/15 07:39:04;;;;;;;9.27;6.57;;;;;;;19.10;46.82;99836.03;5090357;28;20114;-40
2024/03/15 07:41:32;;;;;;;12.60;8.52;;;;;;;19.65;43.63;99835.88;5090800;28;20046;-40
2024/03/15 07:43:57;;;;;;;21.90;11.50;;;;;;;19.38;45.31;99825.16;5093222;28;20048;-41
2024/03/15 07:46:24;;;;;;;11.50;8.10;;;;;;;20.06;43.56;99809.09;5095038;28;20062;-40
2024/03/15 07:48:49;;;;;;;16.92;7.53;;;;;;;20.73;42.45;99834.41;5095297;28;20012;-41
2024/03/15 07:51:15;;;;;;;9.48;6.35;;;;;;;20.88;42.18;99820.91;5094681;28;20077;-40
2024/03/15 07:53:40;;;;;;;10.82;6.28;;;;;;;21.29;40.33;99803.84;5094774;28;20461;-42
2024/03/15 07:56:09;;;;;;;14.98;8.13;;;;;;;21.76;39.47;99813.53;5093711;28;20043;-38
2024/03/15 07:58:37;;;;;;;16.60;9.77;;;;;;;22.35;38.24;99819.25;5094615;28;20495;-41
2024/03/15 08:01:13;;;;;;;10.63;8.27;;;;;;;22.47;37.12;99808.88;5095027;28;20104;-41
2024/03/15 08:03:38;;;;;;;13.07;7.13;;;;;;;22.37;37.62;99809.75;5094867;28;20258;-42
2024/03/15 08:06:05;;;;;;;9.05;6.88;;;;;;;23.10;36.29;99810.88;5094355;28;20016;-41
2024/03/15 08:08:34;;;;;;;13.82;7.28;;;;;;;22.14;36.27;99804.94;5094203;28;20020;-41
2024/03/15 08:11:00;;;;;;;13.25;7.60;;;;;;;21.70;37.08;99808.38;5094751;28;20453;-40
2024/03/15 08:13:27;;;;;;;9.52;6.80;;;;;;;22.41;36.24;99804.59;5094526;28;20533;-39
2024/03/15 08:15:59;;;;;;;8.27;6.93;;;;;;;22.24;35.71;99797.59;5094223;28;20032;-39
2024/03/15 08:18:27;;;;;;;10.40;7.00;;;;;;;22.70;36.08;99798.44;5094442;28;20028;-42
2024/03/15 08:20:53;;;;;;;9.80;6.68;;;;;;;22.58;36.41;99798.75;5094242;28;20035;-39
2024/03/15 08:23:19;;;;;;;10.20;7.40;;;;;;;22.63;35.48;99799.53;5094170;28;20024;-41
2024/03/15 08:25:44;;;;;;;11.10;7.18;;;;;;;22.50;35.85;99800.16;5094294;28;20505;-40
2024/03/15 08:28:13;;;;;;;10.32;7.80;;;;;;;22.64;35.14;99790.31;5093954;28;20043;-40
2024/03/15 08:30:39;;;;;;;11.90;8.00;;;;;;;22.32;35.48;99798.94;5094223;28;20035;-38
2024/03/15 08:33:06;;;;;;;12.05;7.80;;;;;;;22.65;34.66;99789.22;5094292;28;20027;-40
2024/03/15 08:35:32;;;;;;;10.60;8.07;;;;;;;23.43;33.11;99792.88;5093797;28;20031;-40
2024/03/15 08:37:58;;;;;;;11.95;8.27;;;;;;;23.50;32.89;99783.63;5093568;28;20108;-40
2024/03/15 08:40:24;;;;;;;11.82;8.85;;;;;;;22.98;33.65;99786.78;5093903;28;20066;-42
2024/03/15 08:42:50;;;;;;;9.93;7.68;;;;;;;23.23;33.49;99777.63;5093820;28;20474;-41
2024/03/15 08:45:16;;;;;;;11.52;8.15;;;;;;;24.04;32.23;99768.03;5093715;28;20031;-38
2024/03/15 08:47:41;;;;;;;11.90;7.25;;;;;;;24.56;30.98;99769.75;5093914;28;20020;-40
2024/03/15 08:50:11;;;;;;;9.25;7.07;;;;;;;24.63;30.63;99771.28;5093607;28;20523;-40
2024/03/15 08:52:39;;;;;;;9.52;6.65;;;;;;;24.77;30.75;99766.72;5093813;28;20016;-42
2024/03/15 08:55:13;;;;;;;9.80;7.32;;;;;;;25.08;31.25;99767.00;5093148;28;20016;-38
2024/03/15 08:57:39;;;;;;;9.10;6.82;;;;;;;23.78;32.04;99758.31;5093462;28;20395;-40
2024/03/15 09:00:11;;;;;;;10.48;7.72;;;;;;;23.58;30.98;99753.91;5093360;28;20031;-40
2024/03/15 09:02:37;;;;;;;11.38;8.27;;;;;;;22.97;31.86;99752.59;5093703;28;20027;-42
2024/03/15 09:05:03;;;;;;;10.40;7.30;;;;;;;23.69;32.23;99746.44;5093161;28;20419;-39
2024/03/15 09:07:31;;;;;;;10.68;7.22;;;;;;;24.08;30.85;99750.03;5093444;28;20039;-41
2024/03/15 09:09:56;;;;;;;9.45;7.28;;;;;;;24.03;30.85;99748.22;5093694;28;20054;-39
2024/03/15 09:12:22;;;;;;;10.93;7.43;;;;;;;24.76;29.78;99746.03;5093403;28;20446;-41
2024/03/15 09:14:47;;;;;;;8.57;6.65;;;;;;;23.90;30.12;99736.16;5092901;28;20475;-42
2024/03/15 09:17:12;;;;;;;7.93;6.25;;;;;;;24.30;29.58;99733.97;5093123;28;20020;-39
2024/03/15 09:19:38;;;;;;;9.10;6.35;;;;;;;24.14;28.85;99733.38;5093117;28;20052;-42
2024/03/15 09:22:03;;;;;;;8.50;6.32;;;;;;;24.27;28.92;99725.56;5092819;28;20020;-41
2024/03/15 09:24:31;;;;;;;8.13;6.00;;;;;;;23.67;30.14;99721.47;5092892;28;20020;-42
2024/03/15 09:26:57;;;;;;;9.68;6.15;;;;;;;23.47;31.39;99724.44;5092637;28;20027;-41
2024/03/15 09:29:23;;;;;;;9.65;7.45;;;;;;;23.56;30.55;99722.69;5092842;28;20024;-42
2024/03/15 09:31:51;;;;;;;7.97;6.03;;;;;;;23.75;30.47;99707.25;5092945;28;20024;-39
2024/03/15 09:34:17;;;;;;;8.50;6.65;;;;;;;22.99;31.22;99715.13;5092917;28;20027;-38
2024/03/15 09:36:43;;;;;;;11.90;7.55;;;;;;;23.10;31.86;99699.59;5092775;28;20056;-41
2024/03/15 09:39:13;;;;;;;8.55;7.03;;;;;;;23.18;31.89;99707.09;5092673;28;20046;-39
2024/03/15 09:41:39;;;;;;;9.65;7.13;;;;;;;23.11;31.34;99692.25;5092632;28;20046;-43
2024/03/15 09:44:10;;;;;;;10.05;6.72;;;;;;;23.00;31.83;99694.25;5092481;28;20034;-41
2024/03/15 09:46:37;;;;;;;8.52;5.95;;;;;;;23.11;30.52;99690.34;5092686;28;20408;-41
2024/03/15 09:49:05;;;;;;;7.68;5.10;;;;;;;23.20;29.55;99702.19;5092888;28;20023;-41
2024/03/15 09:51:31;;;;;;;9.02;4.93;;;;;;;23.86;27.69;99699.81;5092899;28;20020;-42
2024/03/15 09:53:57;;;;;;;7.65;5.47;;;;;;;23.86;28.48;99699.81;5093452;28;20031;-42
2024/03/15 09:56:24;;;;;;;7.18;5.22;;;;;;;23.87;28.35;99690.53;5093557;28;20028;-43
2024/03/15 09:58:53;;;;;;;8.13;5.00;;;;;;;23.09;29.03;99691.75;5092593;28;20028;-42
2024/03/15 10:01:18;;;;;;;7.43;4.67;;;;;;;23.37;28.53;99681.94;5092623;28;20044;-40
2024/03/15 10:03:47;;;;;;;9.52;5.03;;;;;;;23.43;26.89;99683.47;5092176;28;20024;-36
2024/03/15 10:06:16;;;;;;;8.93;5.20;;;;;;;23.41;27.74;99685.69;5091804;28;20023;-40
2024/03/15 10:08:41;;;;;;;6.60;5.00;;;;;;;23.61;28.17;99679.19;5091943;28;20024;-39
2024/03/15 10:11:07;;;;;;;6.55;5.18;;;;;;;23.67;27.90;99682.66;5092355;28;20625;-41
2024/03/15 10:13:33;;;;;;;7.10;4.68;;;;;;;23.25;26.63;99674.19;5092324;28;20024;-42
2024/03/15 10:16:00;;;;;;;8.80;7.18;;;;;;;22.09;27.95;99670.31;5092099;28;20024;-38
2024/03/15 10:18:25;;;;;;;8.40;4.97;;;;;;;22.68;28.37;99682.09;5091689;28;20075;-39
2024/03/15 10:20:57;;;;;;;8.88;4.70;;;;;;;21.68;28.57;99673.25;5091910;28;20518;-40
2024/03/15 10:23:22;;;;;;;7.55;4.57;;;;;;;21.57;28.39;99668.97;5092139;28;20059;-40
2024/03/15 10:25:51;;;;;;;7.10;4.90;;;;;;;21.41;28.97;99660.91;5091675;28;20062;-42
2024/03/15 10:28:19;;;;;;;7.10;4.90;;;;;;;21.62;28.75;99664.34;5092122;28;20056;-42
2024/03/15 10:30:47;;;;;;;6.82;4.72;;;;;;;21.76;27.70;99667.28;5091886;28;20028;-42
2024/03/15 10:33:12;;;;;;;5.78;4.82;;;;;;;22.11;28.12;99670.03;5092004;28;20103;-41
2024/03/15 10:35:38;;;;;;;8.60;5.38;;;;;;;21.77;29.19;99658.06;5091573;28;20059;-39
2024/03/15 10:38:05;;;;;;;6.85;5.20;;;;;;;22.51;28.79;99660.00;5091661;28;20139;-40
2024/03/15 10:40:32;;;;;;;6.57;4.95;;;;;;;22.72;28.14;99649.78;5091296;28;20027;-41
2024/03/15 10:43:00;;;;;;;6.57;4.85;;;;;;;22.22;28.14;99660.75;5091413;28;20504;-41
2024/03/15 10:45:26;;;;;;;9.02;5.25;;;;;;;22.93;28.04;99653.09;5091147;28;20408;-41
2024/03/15 10:47:56;;;;;;;6.22;4.80;;;;;;;23.52;27.53;99654.59;5091587;28;20020;-40
2024/03/15 10:50:23;;;;;;;8.68;5.75;;;;;;;23.10;28.27;99649.97;5091696;28;20085;-41
2024/03/15 10:52:50;;;;;;;6.28;5.00;;;;;;;22.37;28.46;99644.41;5091526;28;20032;-39
2024/03/15 10:55:15;;;;;;;8.50;5.55;;;;;;;22.56;28.07;99647.22;5091401;28;20028;-40
2024/03/15 10:57:41;;;;;;;10.13;5.03;;;;;;;22.89;27.46;99644.72;5091410;28;20031;-42
2024/03/15 11:00:18;;;;;;;8.52;5.53;;;;;;;23.30;27.02;99638.03;5091463;28;20023;-40
2024/03/15 11:02:48;;;;;;;6.97;5.40;;;;;;;23.33;27.73;99638.25;5091290;28;20547;-40
2024/03/15 11:05:30;;;;;;;7.35;5.53;;;;;;;23.01;28.08;99638.88;5091532;28;20024;-42
2024/03/15 11:08:28;;;;;;;7.65;5.20;;;;;;;22.20;29.05;99638.53;5091437;28;20020;-38
2024/03/15 11:10:55;;;;;;;7.20;5.30;;;;;;;23.52;27.93;99629.34;5087433;28;20032;-39
2024/03/15 11:13:23;;;;;;;7.07;5.28;;;;;;;23.71;27.31;99632.06;5092217;28;20019;-41
2024/03/15 11:15:49;;;;;;;6.28;4.88;;;;;;;24.09;26.81;99630.16;5092295;28;20024;-43
2024/03/15 11:18:15;;;;;;;7.25;5.05;;;;;;;24.30;26.58;99625.19;5091422;28;20108;-44
2024/03/15 11:20:53;;;;;;;6.72;4.97;;;;;;;23.35;27.24;99614.34;5090190;28;20092;-27
2024/03/15 11:23:28;;;;;;;7.05;4.97;;;;;;;22.28;32.15;99613.56;5092084;28;20026;-27
2024/03/15 11:26:01;;;;;;;6.72;4.50;;;;;;;23.13;35.82;99608.66;5091634;28;20444;-32
2024/03/15 11:28:29;;;;;;;7.75;5.95;;;;;;;23.19;31.41;99615.66;5091447;28;20027;-40
2024/03/15 11:30:54;;;;;;;9.82;6.28;;;;;;;23.73;32.09;99617.09;5091253;28;20361;-40
2024/03/15 11:33:20;;;;;;;6.53;5.00;;;;;;;23.93;28.24;99605.16;5091364;28;20027;-40
2024/03/15 11:35:48;;;;;;;7.90;5.25;;;;;;;23.21;29.31;99608.03;5091174;28;20020;-42